sensor_id;sensor_type;location;lat;lon;timestamp;P1;durP1;ratioP1;P2;durP2;ratioP2
21140;SDS011;10728;53.284;10.314;2022-08-19T00:01:41;13.88;;;9.45;;
21140;SDS011;10728;53.284;10.314;2022-08-19T00:04:08;14.73;;;10.48;;
21140;SDS011;10728;53.284;10.314;2022-08-19T00:06:36;12.63;;;10.48;;
21140;SDS011;10728;53.284;10.314;2022-08-19T00:09:06;13.85;;;10.68;;
21140;SDS011;10728;53.284;10.314;2022-08-19T00:11:33;16.67;;;10.43;;
21140;SDS011;10728;53.284;10.314;2022-08-19T00:14:03;12.93;;;9.38;;
21140;SDS011;10728;53.284;10.314;2022-08-19T00:16:30;16.50;;;10.77;;
21140;SDS011;10728;53.284;10.314;2022-08-19T00:18:56;12.85;;;9.68;;
21140;SDS011;10728;53.284;10.314;2022-08-19T00:21:25;14.02;;;9.02;;
21140;SDS011;10728;53.284;10.314;2022-08-19T00:23:54;15.57;;;10.38;;
21140;SDS011;10728;53.284;10.314;2022-08-19T00:26:26;12.10;;;9.38;;
21140;SDS011;10728;53.284;10.314;2022-08-19T00:28:52;18.02;;;10.18;;
21140;SDS011;10728;53.284;10.314;2022-08-19T00:31:21;19.42;;;10.73;;
21140;SDS011;10728;53.284;10.314;2022-08-19T00:33:47;15.60;;;10.45;;
21140;SDS011;10728;53.284;10.314;2022-08-19T00:36:15;22.25;;;10.60;;
21140;SDS011;10728;53.284;10.314;2022-08-19T00:38:42;11.60;;;9.05;;
21140;SDS011;10728;53.284;10.314;2022-08-19T00:41:18;14.93;;;9.82;;
21140;SDS011;10728;53.284;10.314;2022-08-19T00:44:06;14.55;;;9.85;;
21140;SDS011;10728;53.284;10.314;2022-08-19T00:46:34;18.48;;;10.50;;
21140;SDS011;10728;53.284;10.314;2022-08-19T00:49:02;11.63;;;8.35;;
21140;SDS011;10728;53.284;10.314;2022-08-19T00:51:33;9.63;;;8.63;;
21140;SDS011;10728;53.284;10.314;2022-08-19T00:53:59;11.02;;;9.48;;
21140;SDS011;10728;53.284;10.314;2022-08-19T00:56:26;16.77;;;10.45;;
21140;SDS011;10728;53.284;10.314;2022-08-19T00:58:52;10.63;;;7.35;;
21140;SDS011;10728;53.284;10.314;2022-08-19T01:01:20;12.80;;;7.90;;
21140;SDS011;10728;53.284;10.314;2022-08-19T01:03:46;13.50;;;8.68;;
21140;SDS011;10728;53.284;10.314;2022-08-19T01:06:12;17.42;;;10.48;;
21140;SDS011;10728;53.284;10.314;2022-08-19T01:08:38;19.42;;;10.63;;
21140;SDS011;10728;53.284;10.314;2022-08-19T01:11:03;11.00;;;9.40;;
21140;SDS011;10728;53.284;10.314;2022-08-19T01:13:35;16.20;;;10.00;;
21140;SDS011;10728;53.284;10.314;2022-08-19T01:16:03;17.10;;;10.93;;
21140;SDS011;10728;53.284;10.314;2022-08-19T01:18:30;13.80;;;10.02;;
21140;SDS011;10728;53.284;10.314;2022-08-19T01:21:04;12.38;;;8.77;;
21140;SDS011;10728;53.284;10.314;2022-08-19T01:23:33;10.50;;;7.72;;
21140;SDS011;10728;53.284;10.314;2022-08-19T01:26:26;20.73;;;9.55;;
21140;SDS011;10728;53.284;10.314;2022-08-19T01:28:53;13.50;;;9.68;;
21140;SDS011;10728;53.284;10.314;2022-08-19T01:31:21;12.10;;;9.43;;
21140;SDS011;10728;53.284;10.314;2022-08-19T01:33:49;14.23;;;10.57;;
21140;SDS011;10728;53.284;10.314;2022-08-19T01:36:24;12.90;;;9.77;;
21140;SDS011;10728;53.284;10.314;2022-08-19T01:38:54;15.70;;;9.90;;
21140;SDS011;10728;53.284;10.314;2022-08-19T01:41:20;14.40;;;10.02;;
21140;SDS011;10728;53.284;10.314;2022-08-19T01:43:48;15.75;;;9.43;;
21140;SDS011;10728;53.284;10.314;2022-08-19T01:46:18;20.00;;;11.00;;
21140;SDS011;10728;53.284;10.314;2022-08-19T01:48:47;15.55;;;10.88;;
21140;SDS011;10728;53.284;10.314;2022-08-19T01:51:13;14.38;;;9.60;;
21140;SDS011;10728;53.284;10.314;2022-08-19T01:53:39;17.08;;;9.38;;
21140;SDS011;10728;53.284;10.314;2022-08-19T01:56:05;13.65;;;10.55;;
21140;SDS011;10728;53.284;10.314;2022-08-19T01:58:33;17.48;;;10.77;;
21140;SDS011;10728;53.284;10.314;2022-08-19T02:01:02;15.07;;;11.55;;
21140;SDS011;10728;53.284;10.314;2022-08-19T02:03:29;13.40;;;9.88;;
21140;SDS011;10728;53.284;10.314;2022-08-19T02:05:56;15.00;;;10.50;;
21140;SDS011;10728;53.284;10.314;2022-08-19T02:08:26;16.90;;;10.13;;
21140;SDS011;10728;53.284;10.314;2022-08-19T02:10:52;14.00;;;9.93;;
21140;SDS011;10728;53.284;10.314;2022-08-19T02:13:19;14.93;;;8.98;;
21140;SDS011;10728;53.284;10.314;2022-08-19T02:15:44;12.50;;;9.80;;
21140;SDS011;10728;53.284;10.314;2022-08-19T02:18:10;11.23;;;8.65;;
21140;SDS011;10728;53.284;10.314;2022-08-19T02:20:39;11.77;;;8.45;;
21140;SDS011;10728;53.284;10.314;2022-08-19T02:23:06;17.55;;;9.77;;
21140;SDS011;10728;53.284;10.314;2022-08-19T02:25:32;9.93;;;6.97;;
21140;SDS011;10728;53.284;10.314;2022-08-19T02:27:57;13.73;;;8.88;;
21140;SDS011;10728;53.284;10.314;2022-08-19T02:30:23;12.43;;;8.32;;
21140;SDS011;10728;53.284;10.314;2022-08-19T02:32:50;11.00;;;9.15;;
21140;SDS011;10728;53.284;10.314;2022-08-19T02:35:16;13.38;;;8.85;;
21140;SDS011;10728;53.284;10.314;2022-08-19T02:37:42;14.05;;;9.68;;
21140;SDS011;10728;53.284;10.314;2022-08-19T02:40:27;12.43;;;7.90;;
21140;SDS011;10728;53.284;10.314;2022-08-19T02:42:53;12.70;;;9.52;;
21140;SDS011;10728;53.284;10.314;2022-08-19T02:45:19;11.95;;;9.27;;
21140;SDS011;10728;53.284;10.314;2022-08-19T02:47:44;12.38;;;8.25;;
21140;SDS011;10728;53.284;10.314;2022-08-19T02:50:10;11.02;;;8.50;;
21140;SDS011;10728;53.284;10.314;2022-08-19T02:52:35;16.77;;;10.05;;
21140;SDS011;10728;53.284;10.314;2022-08-19T02:55:01;12.23;;;9.95;;
21140;SDS011;10728;53.284;10.314;2022-08-19T02:57:27;16.50;;;9.63;;
21140;SDS011;10728;53.284;10.314;2022-08-19T02:59:53;15.18;;;9.82;;
21140;SDS011;10728;53.284;10.314;2022-08-19T03:02:19;15.27;;;11.27;;
21140;SDS011;10728;53.284;10.314;2022-08-19T03:04:44;12.82;;;10.52;;
21140;SDS011;10728;53.284;10.314;2022-08-19T03:07:12;14.63;;;10.25;;
21140;SDS011;10728;53.284;10.314;2022-08-19T03:09:39;17.13;;;11.07;;
21140;SDS011;10728;53.284;10.314;2022-08-19T03:12:05;18.88;;;11.35;;
21140;SDS011;10728;53.284;10.314;2022-08-19T03:14:31;17.13;;;11.38;;
21140;SDS011;10728;53.284;10.314;2022-08-19T03:16:58;18.80;;;12.13;;
21140;SDS011;10728;53.284;10.314;2022-08-19T03:19:23;14.95;;;11.30;;
21140;SDS011;10728;53.284;10.314;2022-08-19T03:21:49;20.67;;;13.40;;
21140;SDS011;10728;53.284;10.314;2022-08-19T03:24:16;18.60;;;13.27;;
21140;SDS011;10728;53.284;10.314;2022-08-19T03:26:45;15.73;;;11.60;;
21140;SDS011;10728;53.284;10.314;2022-08-19T03:29:13;17.92;;;11.73;;
21140;SDS011;10728;53.284;10.314;2022-08-19T03:31:39;19.17;;;13.98;;
21140;SDS011;10728;53.284;10.314;2022-08-19T03:34:06;19.05;;;13.10;;
21140;SDS011;10728;53.284;10.314;2022-08-19T03:36:32;26.17;;;12.93;;
21140;SDS011;10728;53.284;10.314;2022-08-19T03:38:58;19.55;;;11.43;;
21140;SDS011;10728;53.284;10.314;2022-08-19T03:41:27;15.13;;;9.52;;
21140;SDS011;10728;53.284;10.314;2022-08-19T03:43:56;16.48;;;11.63;;
21140;SDS011;10728;53.284;10.314;2022-08-19T03:46:23;20.92;;;12.48;;
21140;SDS011;10728;53.284;10.314;2022-08-19T03:48:52;20.98;;;12.02;;
21140;SDS011;10728;53.284;10.314;2022-08-19T03:51:20;15.43;;;10.85;;
21140;SDS011;10728;53.284;10.314;2022-08-19T03:53:47;16.15;;;11.43;;
21140;SDS011;10728;53.284;10.314;2022-08-19T03:56:13;18.80;;;11.48;;
21140;SDS011;10728;53.284;10.314;2022-08-19T03:58:42;14.73;;;9.32;;
21140;SDS011;10728;53.284;10.314;2022-08-19T04:01:08;13.15;;;9.48;;
21140;SDS011;10728;53.284;10.314;2022-08-19T04:03:35;18.73;;;10.80;;
21140;SDS011;10728;53.284;10.314;2022-08-19T04:06:10;15.80;;;10.25;;
21140;SDS011;10728;53.284;10.314;2022-08-19T04:08:38;16.17;;;11.35;;
21140;SDS011;10728;53.284;10.314;2022-08-19T04:11:10;14.82;;;10.40;;
21140;SDS011;10728;53.284;10.314;2022-08-19T04:13:37;17.48;;;9.20;;
21140;SDS011;10728;53.284;10.314;2022-08-19T04:16:03;13.43;;;9.98;;
21140;SDS011;10728;53.284;10.314;2022-08-19T04:18:30;13.60;;;8.63;;
21140;SDS011;10728;53.284;10.314;2022-08-19T04:20:57;18.38;;;11.15;;
21140;SDS011;10728;53.284;10.314;2022-08-19T04:23:23;15.88;;;10.65;;
21140;SDS011;10728;53.284;10.314;2022-08-19T04:25:49;18.13;;;11.10;;
21140;SDS011;10728;53.284;10.314;2022-08-19T04:28:15;17.63;;;12.00;;
21140;SDS011;10728;53.284;10.314;2022-08-19T04:30:42;14.43;;;10.45;;
21140;SDS011;10728;53.284;10.314;2022-08-19T04:33:13;16.48;;;10.93;;
21140;SDS011;10728;53.284;10.314;2022-08-19T04:35:44;20.90;;;11.95;;
21140;SDS011;10728;53.284;10.314;2022-08-19T04:38:11;14.57;;;10.32;;
21140;SDS011;10728;53.284;10.314;2022-08-19T04:40:43;24.90;;;13.00;;
21140;SDS011;10728;53.284;10.314;2022-08-19T04:43:29;17.40;;;13.27;;
21140;SDS011;10728;53.284;10.314;2022-08-19T04:45:56;21.15;;;12.45;;
21140;SDS011;10728;53.284;10.314;2022-08-19T04:48:22;17.60;;;12.77;;
21140;SDS011;10728;53.284;10.314;2022-08-19T04:50:57;18.23;;;12.40;;
21140;SDS011;10728;53.284;10.314;2022-08-19T04:53:24;24.65;;;14.20;;
21140;SDS011;10728;53.284;10.314;2022-08-19T04:55:51;17.92;;;12.02;;
21140;SDS011;10728;53.284;10.314;2022-08-19T04:58:17;24.73;;;14.15;;
21140;SDS011;10728;53.284;10.314;2022-08-19T05:00:43;26.50;;;14.13;;
21140;SDS011;10728;53.284;10.314;2022-08-19T05:03:08;21.00;;;13.30;;
21140;SDS011;10728;53.284;10.314;2022-08-19T05:05:38;19.40;;;11.45;;
21140;SDS011;10728;53.284;10.314;2022-08-19T05:08:06;27.25;;;13.70;;
21140;SDS011;10728;53.284;10.314;2022-08-19T05:10:34;19.95;;;10.82;;
21140;SDS011;10728;53.284;10.314;2022-08-19T05:13:01;26.23;;;13.10;;
21140;SDS011;10728;53.284;10.314;2022-08-19T05:15:27;21.17;;;13.30;;
21140;SDS011;10728;53.284;10.314;2022-08-19T05:17:53;21.60;;;11.95;;
21140;SDS011;10728;53.284;10.314;2022-08-19T05:20:50;22.00;;;12.48;;
21140;SDS011;10728;53.284;10.314;2022-08-19T05:23:37;22.42;;;14.18;;
21140;SDS011;10728;53.284;10.314;2022-08-19T05:26:03;18.30;;;11.63;;
21140;SDS011;10728;53.284;10.314;2022-08-19T05:28:29;20.33;;;12.52;;
21140;SDS011;10728;53.284;10.314;2022-08-19T05:30:55;17.67;;;12.15;;
21140;SDS011;10728;53.284;10.314;2022-08-19T05:33:21;23.88;;;14.50;;
21140;SDS011;10728;53.284;10.314;2022-08-19T05:35:48;21.58;;;13.27;;
21140;SDS011;10728;53.284;10.314;2022-08-19T05:38:15;21.35;;;13.38;;
21140;SDS011;10728;53.284;10.314;2022-08-19T05:40:43;21.17;;;13.93;;
21140;SDS011;10728;53.284;10.314;2022-08-19T05:43:12;17.77;;;13.20;;
21140;SDS011;10728;53.284;10.314;2022-08-19T05:45:41;24.10;;;14.70;;
21140;SDS011;10728;53.284;10.314;2022-08-19T05:48:07;22.25;;;13.57;;
21140;SDS011;10728;53.284;10.314;2022-08-19T05:50:36;24.23;;;14.70;;
21140;SDS011;10728;53.284;10.314;2022-08-19T05:53:04;21.52;;;14.93;;
21140;SDS011;10728;53.284;10.314;2022-08-19T05:55:30;24.05;;;15.02;;
21140;SDS011;10728;53.284;10.314;2022-08-19T05:57:56;27.88;;;16.40;;
21140;SDS011;10728;53.284;10.314;2022-08-19T06:00:22;23.55;;;15.25;;
21140;SDS011;10728;53.284;10.314;2022-08-19T06:02:48;29.90;;;18.63;;
21140;SDS011;10728;53.284;10.314;2022-08-19T06:05:14;36.53;;;20.48;;
21140;SDS011;10728;53.284;10.314;2022-08-19T06:07:40;38.85;;;20.92;;
21140;SDS011;10728;53.284;10.314;2022-08-19T06:10:06;41.10;;;22.15;;
21140;SDS011;10728;53.284;10.314;2022-08-19T06:12:35;34.10;;;21.13;;
21140;SDS011;10728;53.284;10.314;2022-08-19T06:15:03;39.75;;;22.83;;
21140;SDS011;10728;53.284;10.314;2022-08-19T06:17:37;47.47;;;26.30;;
21140;SDS011;10728;53.284;10.314;2022-08-19T06:20:04;38.35;;;23.70;;
21140;SDS011;10728;53.284;10.314;2022-08-19T06:22:31;43.50;;;25.88;;
21140;SDS011;10728;53.284;10.314;2022-08-19T06:24:56;35.58;;;25.45;;
21140;SDS011;10728;53.284;10.314;2022-08-19T06:27:22;46.30;;;29.60;;
21140;SDS011;10728;53.284;10.314;2022-08-19T06:29:49;47.50;;;28.27;;
21140;SDS011;10728;53.284;10.314;2022-08-19T06:32:15;55.35;;;32.85;;
21140;SDS011;10728;53.284;10.314;2022-08-19T06:34:42;51.65;;;35.00;;
21140;SDS011;10728;53.284;10.314;2022-08-19T06:37:08;55.25;;;35.70;;
21140;SDS011;10728;53.284;10.314;2022-08-19T06:39:35;56.38;;;36.00;;
21140;SDS011;10728;53.284;10.314;2022-08-19T06:42:04;54.38;;;34.58;;
21140;SDS011;10728;53.284;10.314;2022-08-19T06:44:34;52.45;;;34.88;;
21140;SDS011;10728;53.284;10.314;2022-08-19T06:47:05;48.05;;;31.88;;
21140;SDS011;10728;53.284;10.314;2022-08-19T06:49:32;53.88;;;36.67;;
21140;SDS011;10728;53.284;10.314;2022-08-19T06:52:00;49.03;;;34.08;;
21140;SDS011;10728;53.284;10.314;2022-08-19T06:54:27;52.05;;;34.95;;
21140;SDS011;10728;53.284;10.314;2022-08-19T06:56:59;45.25;;;33.45;;
21140;SDS011;10728;53.284;10.314;2022-08-19T06:59:29;50.95;;;35.65;;
21140;SDS011;10728;53.284;10.314;2022-08-19T07:01:57;47.65;;;32.10;;
21140;SDS011;10728;53.284;10.314;2022-08-19T07:04:26;52.60;;;33.95;;
21140;SDS011;10728;53.284;10.314;2022-08-19T07:07:00;55.65;;;36.35;;
21140;SDS011;10728;53.284;10.314;2022-08-19T07:09:31;51.90;;;36.53;;
21140;SDS011;10728;53.284;10.314;2022-08-19T07:11:56;62.53;;;39.33;;
21140;SDS011;10728;53.284;10.314;2022-08-19T07:14:23;56.22;;;37.58;;
21140;SDS011;10728;53.284;10.314;2022-08-19T07:17:03;61.38;;;38.55;;
21140;SDS011;10728;53.284;10.314;2022-08-19T07:19:33;57.13;;;38.40;;
21140;SDS011;10728;53.284;10.314;2022-08-19T07:22:01;50.80;;;33.75;;
21140;SDS011;10728;53.284;10.314;2022-08-19T07:24:28;52.05;;;34.35;;
21140;SDS011;10728;53.284;10.314;2022-08-19T07:26:55;62.92;;;39.03;;
21140;SDS011;10728;53.284;10.314;2022-08-19T07:29:26;65.60;;;41.50;;
21140;SDS011;10728;53.284;10.314;2022-08-19T07:31:53;62.70;;;40.08;;
21140;SDS011;10728;53.284;10.314;2022-08-19T07:34:21;59.40;;;37.83;;
21140;SDS011;10728;53.284;10.314;2022-08-19T07:36:47;74.15;;;41.10;;
21140;SDS011;10728;53.284;10.314;2022-08-19T07:39:15;62.10;;;39.08;;
21140;SDS011;10728;53.284;10.314;2022-08-19T07:41:43;66.53;;;42.28;;
21140;SDS011;10728;53.284;10.314;2022-08-19T07:44:09;61.00;;;37.30;;
21140;SDS011;10728;53.284;10.314;2022-08-19T07:46:37;61.05;;;37.42;;
21140;SDS011;10728;53.284;10.314;2022-08-19T07:49:03;64.13;;;38.80;;
21140;SDS011;10728;53.284;10.314;2022-08-19T07:51:30;58.95;;;36.90;;
21140;SDS011;10728;53.284;10.314;2022-08-19T07:53:55;69.10;;;38.30;;
21140;SDS011;10728;53.284;10.314;2022-08-19T07:56:22;53.28;;;34.88;;
21140;SDS011;10728;53.284;10.314;2022-08-19T07:58:49;65.88;;;39.92;;
21140;SDS011;10728;53.284;10.314;2022-08-19T08:01:17;68.53;;;40.88;;
21140;SDS011;10728;53.284;10.314;2022-08-19T08:03:44;65.75;;;39.70;;
21140;SDS011;10728;53.284;10.314;2022-08-19T08:06:29;69.55;;;39.90;;
21140;SDS011;10728;53.284;10.314;2022-08-19T08:09:14;71.93;;;38.28;;
21140;SDS011;10728;53.284;10.314;2022-08-19T08:12:10;71.47;;;40.45;;
21140;SDS011;10728;53.284;10.314;2022-08-19T08:14:40;75.05;;;40.30;;
21140;SDS011;10728;53.284;10.314;2022-08-19T08:17:07;62.50;;;39.28;;
21140;SDS011;10728;53.284;10.314;2022-08-19T08:19:38;61.67;;;38.53;;
21140;SDS011;10728;53.284;10.314;2022-08-19T08:22:06;60.83;;;37.50;;
21140;SDS011;10728;53.284;10.314;2022-08-19T08:24:33;63.47;;;38.95;;
21140;SDS011;10728;53.284;10.314;2022-08-19T08:26:59;61.65;;;37.75;;
21140;SDS011;10728;53.284;10.314;2022-08-19T08:29:29;65.82;;;37.05;;
21140;SDS011;10728;53.284;10.314;2022-08-19T08:31:55;65.90;;;38.33;;
21140;SDS011;10728;53.284;10.314;2022-08-19T08:34:21;58.80;;;36.33;;
21140;SDS011;10728;53.284;10.314;2022-08-19T08:36:46;64.30;;;35.08;;
21140;SDS011;10728;53.284;10.314;2022-08-19T08:39:15;54.10;;;32.72;;
21140;SDS011;10728;53.284;10.314;2022-08-19T08:41:53;56.15;;;34.92;;
21140;SDS011;10728;53.284;10.314;2022-08-19T08:44:37;58.65;;;33.72;;
21140;SDS011;10728;53.284;10.314;2022-08-19T08:47:09;59.95;;;35.20;;
21140;SDS011;10728;53.284;10.314;2022-08-19T08:49:56;64.43;;;34.90;;
21140;SDS011;10728;53.284;10.314;2022-08-19T08:52:29;56.83;;;33.65;;
21140;SDS011;10728;53.284;10.314;2022-08-19T08:55:03;56.13;;;32.15;;
21140;SDS011;10728;53.284;10.314;2022-08-19T08:57:36;53.88;;;31.08;;
21140;SDS011;10728;53.284;10.314;2022-08-19T09:00:06;54.30;;;31.10;;
21140;SDS011;10728;53.284;10.314;2022-08-19T09:02:33;58.05;;;31.52;;
21140;SDS011;10728;53.284;10.314;2022-08-19T09:04:59;55.35;;;30.55;;
21140;SDS011;10728;53.284;10.314;2022-08-19T09:13:15;46.50;;;27.02;;
21140;SDS011;10728;53.284;10.314;2022-08-19T09:16:06;48.83;;;28.00;;
21140;SDS011;10728;53.284;10.314;2022-08-19T09:18:46;42.88;;;29.90;;
21140;SDS011;10728;53.284;10.314;2022-08-19T09:21:14;44.70;;;27.67;;
21140;SDS011;10728;53.284;10.314;2022-08-19T09:23:40;40.97;;;27.23;;
21140;SDS011;10728;53.284;10.314;2022-08-19T09:26:07;36.58;;;25.35;;
21140;SDS011;10728;53.284;10.314;2022-08-19T09:28:34;48.92;;;28.73;;
21140;SDS011;10728;53.284;10.314;2022-08-19T09:31:00;50.45;;;27.55;;
21140;SDS011;10728;53.284;10.314;2022-08-19T09:33:26;48.53;;;28.35;;
21140;SDS011;10728;53.284;10.314;2022-08-19T09:36:00;47.13;;;28.52;;
21140;SDS011;10728;53.284;10.314;2022-08-19T09:38:36;46.13;;;26.98;;
21140;SDS011;10728;53.284;10.314;2022-08-19T09:41:09;52.72;;;28.20;;
21140;SDS011;10728;53.284;10.314;2022-08-19T09:43:38;42.90;;;25.65;;
21140;SDS011;10728;53.284;10.314;2022-08-19T09:46:05;46.70;;;28.67;;
21140;SDS011;10728;53.284;10.314;2022-08-19T09:48:34;48.08;;;28.10;;
21140;SDS011;10728;53.284;10.314;2022-08-19T09:51:02;50.00;;;27.63;;
21140;SDS011;10728;53.284;10.314;2022-08-19T09:53:33;42.05;;;24.25;;
21140;SDS011;10728;53.284;10.314;2022-08-19T09:56:03;42.38;;;26.92;;
21140;SDS011;10728;53.284;10.314;2022-08-19T09:58:30;51.92;;;26.95;;
21140;SDS011;10728;53.284;10.314;2022-08-19T10:00:57;49.45;;;27.00;;
21140;SDS011;10728;53.284;10.314;2022-08-19T10:03:23;41.35;;;27.15;;
21140;SDS011;10728;53.284;10.314;2022-08-19T10:05:49;42.83;;;25.98;;
21140;SDS011;10728;53.284;10.314;2022-08-19T10:08:19;38.10;;;22.98;;
21140;SDS011;10728;53.284;10.314;2022-08-19T10:10:49;46.45;;;28.50;;
21140;SDS011;10728;53.284;10.314;2022-08-19T10:13:16;51.25;;;28.60;;
21140;SDS011;10728;53.284;10.314;2022-08-19T10:15:50;39.53;;;24.58;;
21140;SDS011;10728;53.284;10.314;2022-08-19T10:18:17;47.30;;;27.35;;
21140;SDS011;10728;53.284;10.314;2022-08-19T10:20:44;52.45;;;31.00;;
21140;SDS011;10728;53.284;10.314;2022-08-19T10:23:11;47.83;;;29.48;;
21140;SDS011;10728;53.284;10.314;2022-08-19T10:25:37;46.28;;;28.13;;
21140;SDS011;10728;53.284;10.314;2022-08-19T10:28:03;50.45;;;28.30;;
21140;SDS011;10728;53.284;10.314;2022-08-19T10:30:29;48.75;;;29.98;;
21140;SDS011;10728;53.284;10.314;2022-08-19T10:32:54;51.90;;;31.92;;
21140;SDS011;10728;53.284;10.314;2022-08-19T10:35:20;53.15;;;34.92;;
21140;SDS011;10728;53.284;10.314;2022-08-19T10:37:46;57.40;;;34.10;;
21140;SDS011;10728;53.284;10.314;2022-08-19T10:40:11;54.78;;;32.63;;
21140;SDS011;10728;53.284;10.314;2022-08-19T10:42:37;58.85;;;34.92;;
21140;SDS011;10728;53.284;10.314;2022-08-19T10:45:03;61.03;;;34.13;;
21140;SDS011;10728;53.284;10.314;2022-08-19T10:47:31;53.95;;;33.38;;
21140;SDS011;10728;53.284;10.314;2022-08-19T10:49:58;57.10;;;35.47;;
21140;SDS011;10728;53.284;10.314;2022-08-19T10:52:44;50.95;;;33.03;;
21140;SDS011;10728;53.284;10.314;2022-08-19T10:55:10;59.67;;;35.70;;
21140;SDS011;10728;53.284;10.314;2022-08-19T10:57:54;56.92;;;35.20;;
21140;SDS011;10728;53.284;10.314;2022-08-19T11:00:20;55.63;;;35.67;;
21140;SDS011;10728;53.284;10.314;2022-08-19T11:02:48;60.83;;;35.45;;
21140;SDS011;10728;53.284;10.314;2022-08-19T11:05:14;56.20;;;34.75;;
21140;SDS011;10728;53.284;10.314;2022-08-19T11:07:40;54.17;;;31.90;;
21140;SDS011;10728;53.284;10.314;2022-08-19T11:10:07;51.78;;;31.70;;
21140;SDS011;10728;53.284;10.314;2022-08-19T11:12:36;50.70;;;32.00;;
21140;SDS011;10728;53.284;10.314;2022-08-19T11:15:05;59.30;;;35.65;;
21140;SDS011;10728;53.284;10.314;2022-08-19T11:17:32;56.85;;;37.22;;
21140;SDS011;10728;53.284;10.314;2022-08-19T11:19:58;57.67;;;36.53;;
21140;SDS011;10728;53.284;10.314;2022-08-19T11:22:28;55.58;;;35.70;;
21140;SDS011;10728;53.284;10.314;2022-08-19T11:24:53;52.42;;;36.78;;
21140;SDS011;10728;53.284;10.314;2022-08-19T11:27:20;55.85;;;36.92;;
21140;SDS011;10728;53.284;10.314;2022-08-19T11:29:46;57.53;;;37.45;;
21140;SDS011;10728;53.284;10.314;2022-08-19T11:32:11;61.78;;;37.47;;
21140;SDS011;10728;53.284;10.314;2022-08-19T11:34:38;47.15;;;35.13;;
21140;SDS011;10728;53.284;10.314;2022-08-19T11:37:04;50.28;;;34.38;;
21140;SDS011;10728;53.284;10.314;2022-08-19T11:39:31;43.40;;;30.60;;
21140;SDS011;10728;53.284;10.314;2022-08-19T11:41:59;59.10;;;36.40;;
21140;SDS011;10728;53.284;10.314;2022-08-19T11:44:26;56.03;;;37.00;;
21140;SDS011;10728;53.284;10.314;2022-08-19T11:46:51;51.90;;;34.25;;
21140;SDS011;10728;53.284;10.314;2022-08-19T11:49:18;52.80;;;34.55;;
21140;SDS011;10728;53.284;10.314;2022-08-19T11:51:44;42.03;;;31.77;;
21140;SDS011;10728;53.284;10.314;2022-08-19T11:54:11;48.70;;;32.83;;
21140;SDS011;10728;53.284;10.314;2022-08-19T11:56:38;47.55;;;33.45;;
21140;SDS011;10728;53.284;10.314;2022-08-19T11:59:03;48.30;;;32.78;;
21140;SDS011;10728;53.284;10.314;2022-08-19T12:01:29;42.40;;;31.83;;
21140;SDS011;10728;53.284;10.314;2022-08-19T12:03:55;47.70;;;35.63;;
21140;SDS011;10728;53.284;10.314;2022-08-19T12:06:22;52.50;;;39.50;;
21140;SDS011;10728;53.284;10.314;2022-08-19T12:08:57;54.95;;;39.75;;
21140;SDS011;10728;53.284;10.314;2022-08-19T12:11:24;48.67;;;36.38;;
21140;SDS011;10728;53.284;10.314;2022-08-19T12:13:50;48.42;;;38.03;;
21140;SDS011;10728;53.284;10.314;2022-08-19T12:16:17;54.08;;;39.80;;
21140;SDS011;10728;53.284;10.314;2022-08-19T12:18:44;48.55;;;38.15;;
21140;SDS011;10728;53.284;10.314;2022-08-19T12:21:13;50.10;;;39.47;;
21140;SDS011;10728;53.284;10.314;2022-08-19T12:23:40;50.70;;;38.83;;
21140;SDS011;10728;53.284;10.314;2022-08-19T12:26:06;52.60;;;39.13;;
21140;SDS011;10728;53.284;10.314;2022-08-19T12:28:31;45.83;;;37.08;;
21140;SDS011;10728;53.284;10.314;2022-08-19T12:30:57;46.65;;;38.22;;
21140;SDS011;10728;53.284;10.314;2022-08-19T12:33:23;46.97;;;39.08;;
21140;SDS011;10728;53.284;10.314;2022-08-19T12:35:51;52.03;;;40.53;;
21140;SDS011;10728;53.284;10.314;2022-08-19T12:38:17;50.08;;;38.25;;
21140;SDS011;10728;53.284;10.314;2022-08-19T12:40:46;49.08;;;34.95;;
21140;SDS011;10728;53.284;10.314;2022-08-19T12:43:12;53.70;;;38.88;;
21140;SDS011;10728;53.284;10.314;2022-08-19T12:45:41;50.20;;;37.40;;
21140;SDS011;10728;53.284;10.314;2022-08-19T12:48:07;51.22;;;38.65;;
21140;SDS011;10728;53.284;10.314;2022-08-19T12:50:33;50.28;;;36.83;;
21140;SDS011;10728;53.284;10.314;2022-08-19T12:52:59;45.75;;;35.53;;
21140;SDS011;10728;53.284;10.314;2022-08-19T12:55:24;44.83;;;35.90;;
21140;SDS011;10728;53.284;10.314;2022-08-19T12:57:50;43.88;;;36.20;;
21140;SDS011;10728;53.284;10.314;2022-08-19T13:00:16;43.33;;;35.05;;
21140;SDS011;10728;53.284;10.314;2022-08-19T13:02:46;46.33;;;35.33;;
21140;SDS011;10728;53.284;10.314;2022-08-19T13:05:15;44.85;;;34.97;;
21140;SDS011;10728;53.284;10.314;2022-08-19T13:07:47;41.22;;;33.95;;
21140;SDS011;10728;53.284;10.314;2022-08-19T13:10:14;43.10;;;35.10;;
21140;SDS011;10728;53.284;10.314;2022-08-19T13:12:42;37.33;;;32.85;;
21140;SDS011;10728;53.284;10.314;2022-08-19T13:15:08;39.70;;;33.63;;
21140;SDS011;10728;53.284;10.314;2022-08-19T13:17:35;44.80;;;34.70;;
21140;SDS011;10728;53.284;10.314;2022-08-19T13:20:01;43.80;;;35.67;;
21140;SDS011;10728;53.284;10.314;2022-08-19T13:22:27;31.88;;;27.25;;
21140;SDS011;10728;53.284;10.314;2022-08-19T13:24:53;35.42;;;28.88;;
21140;SDS011;10728;53.284;10.314;2022-08-19T13:27:19;35.05;;;28.15;;
21140;SDS011;10728;53.284;10.314;2022-08-19T13:29:44;37.03;;;29.58;;
21140;SDS011;10728;53.284;10.314;2022-08-19T13:32:28;36.88;;;30.08;;
21140;SDS011;10728;53.284;10.314;2022-08-19T13:35:13;33.88;;;29.23;;
21140;SDS011;10728;53.284;10.314;2022-08-19T13:37:38;33.20;;;28.38;;
21140;SDS011;10728;53.284;10.314;2022-08-19T13:40:08;32.00;;;26.13;;
21140;SDS011;10728;53.284;10.314;2022-08-19T13:42:38;32.20;;;26.90;;
21140;SDS011;10728;53.284;10.314;2022-08-19T13:45:04;32.53;;;25.92;;
21140;SDS011;10728;53.284;10.314;2022-08-19T13:47:32;45.13;;;35.25;;
21140;SDS011;10728;53.284;10.314;2022-08-19T13:49:59;31.60;;;26.25;;
21140;SDS011;10728;53.284;10.314;2022-08-19T13:52:25;130.30;;;97.57;;
21140;SDS011;10728;53.284;10.314;2022-08-19T13:54:51;56.00;;;41.97;;
21140;SDS011;10728;53.284;10.314;2022-08-19T13:57:16;43.38;;;37.30;;
21140;SDS011;10728;53.284;10.314;2022-08-19T13:59:42;90.50;;;62.97;;
21140;SDS011;10728;53.284;10.314;2022-08-19T14:02:07;41.90;;;34.58;;
21140;SDS011;10728;53.284;10.314;2022-08-19T14:04:33;44.45;;;36.88;;
21140;SDS011;10728;53.284;10.314;2022-08-19T14:06:58;57.38;;;40.67;;
21140;SDS011;10728;53.284;10.314;2022-08-19T14:09:24;40.50;;;28.13;;
21140;SDS011;10728;53.284;10.314;2022-08-19T14:11:50;32.08;;;26.45;;
21140;SDS011;10728;53.284;10.314;2022-08-19T14:14:16;32.67;;;26.10;;
21140;SDS011;10728;53.284;10.314;2022-08-19T14:16:41;30.67;;;26.42;;
21140;SDS011;10728;53.284;10.314;2022-08-19T14:19:07;30.85;;;25.40;;
21140;SDS011;10728;53.284;10.314;2022-08-19T14:21:33;27.48;;;24.60;;
21140;SDS011;10728;53.284;10.314;2022-08-19T14:23:59;34.03;;;30.33;;